ADDS METAR Data INFO
IDs: Format: Raw Decoded Include TAF

Data at: 0112 UTC 21 Oct 2017

KHBG 210053Z AUTO 00000KT 10SM CLR 21/19 A3011 RMK AO2 SLP194 T02060189
KHBG 202353Z AUTO 00000KT 10SM CLR 23/19 A3010 RMK AO2 SLP190 T02280189 10272 20228 53003
KHBG 202253Z AUTO 09004KT 10SM CLR 25/18 A3009 RMK AO2 SLP187 T02500183
KHBG 202153Z AUTO 10006KT 10SM CLR 27/18 A3009 RMK AO2 SLP187 T02670178
KHBG 202053Z AUTO 12007KT 10SM OVC055 27/18 A3009 RMK AO2 SLP187 T02670178 56024
KHBG 201953Z AUTO 13007KT 10SM CLR 27/18 A3009 RMK AO2 SLP188 T02720178
KHBG 201853Z AUTO 11007KT 10SM BKN049 27/18 A3013 RMK AO2 SLP199 T02670178
KHBG 201753Z AUTO 07007KT 10SM FEW060 26/18 A3016 RMK AO2 SLP212 T02610178 10261 20122 58022
KHBG 201653Z AUTO 11006KT 10SM CLR 24/17 A3019 RMK AO2 SLP221 T02390172
KHBG 201553Z AUTO 11005KT 10SM CLR 22/17 A3021 RMK AO2 SLP227 T02220167
KHBG 201453Z AUTO 13005KT 10SM CLR 20/16 A3023 RMK AO2 SLP233 T02000156 51008
KHBG 201353Z AUTO VRB03KT 10SM CLR 17/15 A3022 RMK AO2 SLP233 T01720150
KHBG 201253Z AUTO 00000KT 10SM CLR 13/13 A3021 RMK AO2 SLP229 T01330128
KHBG 201153Z AUTO 00000KT 10SM CLR 12/12 A3020 RMK AO2 SLP225 T01220122 10144 20122 53006
KHBG 201053Z AUTO 00000KT 10SM CLR 13/13 A3019 RMK AO2 SLP220 T01280128
KHBG 200953Z AUTO 00000KT 10SM CLR 13/13 A3018 RMK AO2 SLP218 T01280128
KHBG 200853Z AUTO 00000KT 10SM CLR 13/13 A3018 RMK AO2 SLP219 T01280128 58007
KHBG 200753Z AUTO 00000KT 10SM CLR 13/13 A3019 RMK AO2 SLP222 T01330133
KHBG 200653Z AUTO 00000KT 10SM CLR 14/14 A3020 RMK AO2 SLP225 T01390139
KHBG 200553Z AUTO 00000KT 10SM CLR 14/14 A3020 RMK AO2 SLP226 T01440144 10206 20144 402780094 58002
KHBG 200453Z AUTO 00000KT 10SM CLR 15/15 A3021 RMK AO2 SLP227 T01500150
KHBG 200353Z AUTO 00000KT 10SM CLR 16/16 A3021 RMK AO2 SLP228 T01610156
KHBG 200253Z AUTO 00000KT 10SM CLR 17/17 A3021 RMK AO2 SLP227 T01670167 51014
KHBG 200153Z AUTO 00000KT 10SM CLR 18/17 A3019 RMK AO2 SLP221 T01780172
KHBG 200053Z AUTO 00000KT 10SM CLR 19/18 A3018 RMK AO2 SLP220 T01940178
KHBG 192353Z AUTO 00000KT 10SM CLR 21/18 A3017 RMK AO2 SLP214 T02060178 10278 20206 53002
KHBG 192253Z AUTO 00000KT 10SM CLR 24/17 A3016 RMK AO2 SLP209 T02440172
KHBG 192153Z AUTO 05006KT 10SM CLR 26/16 A3015 RMK AO2 SLP208 T02610161
KHBG 192053Z AUTO 06007KT 10SM CLR 27/16 A3016 RMK AO2 SLP211 T02670156 56018
KHBG 191953Z AUTO 05005KT 10SM BKN045 27/16 A3017 RMK AO2 SLP213 T02720161
KHBG 191853Z AUTO VRB04KT 10SM CLR 26/17 A3018 RMK AO2 SLP219 T02610167
KHBG 191753Z AUTO 07006KT 10SM CLR 26/18 A3022 RMK AO2 SLP230 T02610178 10261 20094 58015
KHBG 191653Z AUTO VRB04KT 10SM CLR 24/17 A3025 RMK AO2 SLP240 T02390172
KHBG 191553Z AUTO VRB03KT 10SM CLR 22/16 A3026 RMK AO2 SLP245 T02170156
KHBG 191453Z AUTO 06003KT 10SM CLR 19/13 A3026 RMK AO2 SLP245 T01890133 53013
KHBG 191353Z AUTO 00000KT 10SM CLR 15/12 A3024 RMK AO2 SLP240 T01500122